sensor_id;sensor_type;location;lat;lon;timestamp;temperature;humidity
32366;DHT22;18837;46.832;16.838;2022-10-16T00:01:21;14.30;89.10
32366;DHT22;18837;46.832;16.838;2022-10-16T00:03:48;14.30;89.20
32366;DHT22;18837;46.832;16.838;2022-10-16T00:06:15;14.30;89.00
32366;DHT22;18837;46.832;16.838;2022-10-16T00:08:41;14.20;88.90
32366;DHT22;18837;46.832;16.838;2022-10-16T00:11:12;14.20;89.20
32366;DHT22;18837;46.832;16.838;2022-10-16T00:13:40;14.20;89.00
32366;DHT22;18837;46.832;16.838;2022-10-16T00:16:06;14.20;89.20
32366;DHT22;18837;46.832;16.838;2022-10-16T00:18:34;14.20;89.30
32366;DHT22;18837;46.832;16.838;2022-10-16T00:21:05;14.20;89.40
32366;DHT22;18837;46.832;16.838;2022-10-16T00:23:32;14.20;89.80
32366;DHT22;18837;46.832;16.838;2022-10-16T00:25:59;14.20;89.60
32366;DHT22;18837;46.832;16.838;2022-10-16T00:28:26;14.20;89.40
32366;DHT22;18837;46.832;16.838;2022-10-16T00:30:51;14.20;89.00
32366;DHT22;18837;46.832;16.838;2022-10-16T00:33:30;14.20;89.80
32366;DHT22;18837;46.832;16.838;2022-10-16T00:36:25;14.30;89.20
32366;DHT22;18837;46.832;16.838;2022-10-16T00:38:57;14.20;89.10
32366;DHT22;18837;46.832;16.838;2022-10-16T00:41:27;14.20;89.30
32366;DHT22;18837;46.832;16.838;2022-10-16T00:43:54;14.20;89.20
32366;DHT22;18837;46.832;16.838;2022-10-16T00:46:25;14.20;88.90
32366;DHT22;18837;46.832;16.838;2022-10-16T00:51:26;14.20;91.20
32366;DHT22;18837;46.832;16.838;2022-10-16T00:53:55;14.10;89.00
32366;DHT22;18837;46.832;16.838;2022-10-16T00:56:21;14.10;89.00
32366;DHT22;18837;46.832;16.838;2022-10-16T00:58:46;14.10;88.90
32366;DHT22;18837;46.832;16.838;2022-10-16T01:01:12;14.10;89.00
32366;DHT22;18837;46.832;16.838;2022-10-16T01:03:38;14.10;89.20
32366;DHT22;18837;46.832;16.838;2022-10-16T01:06:22;14.10;89.10
32366;DHT22;18837;46.832;16.838;2022-10-16T01:10:06;14.00;89.50
32366;DHT22;18837;46.832;16.838;2022-10-16T01:12:34;14.10;91.60
32366;DHT22;18837;46.832;16.838;2022-10-16T01:15:10;14.10;91.40
32366;DHT22;18837;46.832;16.838;2022-10-16T01:17:48;14.10;89.30
32366;DHT22;18837;46.832;16.838;2022-10-16T01:22:53;14.10;90.90
32366;DHT22;18837;46.832;16.838;2022-10-16T01:28:11;14.10;90.90
32366;DHT22;18837;46.832;16.838;2022-10-16T01:30:40;14.10;89.30
32366;DHT22;18837;46.832;16.838;2022-10-16T01:33:17;14.10;89.00
32366;DHT22;18837;46.832;16.838;2022-10-16T01:35:52;14.10;89.10
32366;DHT22;18837;46.832;16.838;2022-10-16T01:38:19;14.00;89.10
32366;DHT22;18837;46.832;16.838;2022-10-16T01:40:52;14.00;88.70
32366;DHT22;18837;46.832;16.838;2022-10-16T01:43:31;14.00;91.20
32366;DHT22;18837;46.832;16.838;2022-10-16T01:46:11;14.00;89.00
32366;DHT22;18837;46.832;16.838;2022-10-16T01:48:39;14.00;89.30
32366;DHT22;18837;46.832;16.838;2022-10-16T01:51:09;13.90;89.00
32366;DHT22;18837;46.832;16.838;2022-10-16T01:53:37;13.90;89.10
32366;DHT22;18837;46.832;16.838;2022-10-16T01:56:08;13.90;88.70
32366;DHT22;18837;46.832;16.838;2022-10-16T01:58:39;13.90;89.40
32366;DHT22;18837;46.832;16.838;2022-10-16T02:01:08;13.90;89.60
32366;DHT22;18837;46.832;16.838;2022-10-16T02:03:38;13.90;89.90
32366;DHT22;18837;46.832;16.838;2022-10-16T02:06:06;13.90;89.50
32366;DHT22;18837;46.832;16.838;2022-10-16T02:08:32;14.00;89.60
32366;DHT22;18837;46.832;16.838;2022-10-16T02:11:00;14.00;89.40
32366;DHT22;18837;46.832;16.838;2022-10-16T02:13:34;14.00;89.40
32366;DHT22;18837;46.832;16.838;2022-10-16T02:16:01;13.90;89.30
32366;DHT22;18837;46.832;16.838;2022-10-16T02:18:40;14.00;89.90
32366;DHT22;18837;46.832;16.838;2022-10-16T02:21:35;14.00;89.40
32366;DHT22;18837;46.832;16.838;2022-10-16T02:27:07;13.90;91.30
32366;DHT22;18837;46.832;16.838;2022-10-16T02:29:42;13.90;91.30
32366;DHT22;18837;46.832;16.838;2022-10-16T02:32:12;13.90;89.20
32366;DHT22;18837;46.832;16.838;2022-10-16T02:34:39;13.90;89.00
32366;DHT22;18837;46.832;16.838;2022-10-16T02:37:06;13.80;88.80
32366;DHT22;18837;46.832;16.838;2022-10-16T02:39:33;13.80;88.90
32366;DHT22;18837;46.832;16.838;2022-10-16T02:41:59;13.80;89.30
32366;DHT22;18837;46.832;16.838;2022-10-16T02:44:25;13.80;89.40
32366;DHT22;18837;46.832;16.838;2022-10-16T02:46:50;13.80;90.10
32366;DHT22;18837;46.832;16.838;2022-10-16T02:49:16;13.80;89.30
32366;DHT22;18837;46.832;16.838;2022-10-16T02:51:44;13.80;89.60
32366;DHT22;18837;46.832;16.838;2022-10-16T02:54:10;13.80;89.80
32366;DHT22;18837;46.832;16.838;2022-10-16T02:56:48;13.80;89.60
32366;DHT22;18837;46.832;16.838;2022-10-16T02:59:14;13.80;89.90
32366;DHT22;18837;46.832;16.838;2022-10-16T03:01:39;13.80;89.10
32366;DHT22;18837;46.832;16.838;2022-10-16T03:04:05;13.80;89.40
32366;DHT22;18837;46.832;16.838;2022-10-16T03:06:30;13.80;89.20
32366;DHT22;18837;46.832;16.838;2022-10-16T03:08:56;13.80;89.00
32366;DHT22;18837;46.832;16.838;2022-10-16T03:11:22;13.80;89.10
32366;DHT22;18837;46.832;16.838;2022-10-16T03:13:47;13.80;89.40
32366;DHT22;18837;46.832;16.838;2022-10-16T03:16:13;13.80;89.20
32366;DHT22;18837;46.832;16.838;2022-10-16T03:18:38;13.80;89.60
32366;DHT22;18837;46.832;16.838;2022-10-16T03:21:04;13.70;88.70
32366;DHT22;18837;46.832;16.838;2022-10-16T03:23:30;13.70;89.00
32366;DHT22;18837;46.832;16.838;2022-10-16T03:25:55;13.70;89.20
32366;DHT22;18837;46.832;16.838;2022-10-16T03:28:25;13.70;89.40
32366;DHT22;18837;46.832;16.838;2022-10-16T03:30:54;13.60;89.40
32366;DHT22;18837;46.832;16.838;2022-10-16T03:33:19;13.60;89.40
32366;DHT22;18837;46.832;16.838;2022-10-16T03:35:51;13.60;89.60
32366;DHT22;18837;46.832;16.838;2022-10-16T03:38:18;13.60;89.60
32366;DHT22;18837;46.832;16.838;2022-10-16T03:40:44;13.60;89.40
32366;DHT22;18837;46.832;16.838;2022-10-16T03:43:09;13.60;90.00
32366;DHT22;18837;46.832;16.838;2022-10-16T03:45:36;13.60;90.30
32366;DHT22;18837;46.832;16.838;2022-10-16T03:48:02;13.60;89.70
32366;DHT22;18837;46.832;16.838;2022-10-16T03:50:29;13.70;90.00
32366;DHT22;18837;46.832;16.838;2022-10-16T03:52:55;13.70;90.00
32366;DHT22;18837;46.832;16.838;2022-10-16T03:55:21;13.70;90.10
32366;DHT22;18837;46.832;16.838;2022-10-16T03:57:46;13.70;89.40
32366;DHT22;18837;46.832;16.838;2022-10-16T04:00:13;13.70;89.20
32366;DHT22;18837;46.832;16.838;2022-10-16T04:02:51;13.70;89.00
32366;DHT22;18837;46.832;16.838;2022-10-16T04:05:28;13.70;89.90
32366;DHT22;18837;46.832;16.838;2022-10-16T04:07:54;13.60;88.90
32366;DHT22;18837;46.832;16.838;2022-10-16T04:10:20;13.60;89.70
32366;DHT22;18837;46.832;16.838;2022-10-16T04:12:46;13.50;88.80
32366;DHT22;18837;46.832;16.838;2022-10-16T04:15:11;13.60;89.30
32366;DHT22;18837;46.832;16.838;2022-10-16T04:17:37;13.50;89.10
32366;DHT22;18837;46.832;16.838;2022-10-16T04:20:04;13.50;89.00
32366;DHT22;18837;46.832;16.838;2022-10-16T04:22:30;13.50;90.60
32366;DHT22;18837;46.832;16.838;2022-10-16T04:24:56;13.40;90.40
32366;DHT22;18837;46.832;16.838;2022-10-16T04:27:22;13.40;89.40
32366;DHT22;18837;46.832;16.838;2022-10-16T04:29:47;13.40;89.40
32366;DHT22;18837;46.832;16.838;2022-10-16T04:32:13;13.40;89.60
32366;DHT22;18837;46.832;16.838;2022-10-16T04:34:39;13.40;89.90
32366;DHT22;18837;46.832;16.838;2022-10-16T04:37:05;13.40;89.70
32366;DHT22;18837;46.832;16.838;2022-10-16T04:39:31;13.50;89.80
32366;DHT22;18837;46.832;16.838;2022-10-16T04:41:56;13.50;89.60
32366;DHT22;18837;46.832;16.838;2022-10-16T04:44:22;13.50;89.40
32366;DHT22;18837;46.832;16.838;2022-10-16T04:46:50;13.50;89.30
32366;DHT22;18837;46.832;16.838;2022-10-16T04:49:16;13.50;89.20
32366;DHT22;18837;46.832;16.838;2022-10-16T04:51:42;13.50;89.00
32366;DHT22;18837;46.832;16.838;2022-10-16T04:54:08;13.50;88.80
32366;DHT22;18837;46.832;16.838;2022-10-16T04:56:40;13.50;88.80
32366;DHT22;18837;46.832;16.838;2022-10-16T04:59:13;13.40;89.30
32366;DHT22;18837;46.832;16.838;2022-10-16T05:01:40;13.40;88.90
32366;DHT22;18837;46.832;16.838;2022-10-16T05:04:05;13.40;88.50
32366;DHT22;18837;46.832;16.838;2022-10-16T05:06:31;13.40;88.90
32366;DHT22;18837;46.832;16.838;2022-10-16T05:08:57;13.30;89.00
32366;DHT22;18837;46.832;16.838;2022-10-16T05:11:25;13.30;89.40
32366;DHT22;18837;46.832;16.838;2022-10-16T05:14:09;13.30;89.80
32366;DHT22;18837;46.832;16.838;2022-10-16T05:16:35;13.30;89.60
32366;DHT22;18837;46.832;16.838;2022-10-16T05:19:00;13.20;89.70
32366;DHT22;18837;46.832;16.838;2022-10-16T05:21:26;13.20;89.30
32366;DHT22;18837;46.832;16.838;2022-10-16T05:23:53;13.30;90.50
32366;DHT22;18837;46.832;16.838;2022-10-16T05:26:19;13.30;89.90
32366;DHT22;18837;46.832;16.838;2022-10-16T05:28:45;13.30;89.80
32366;DHT22;18837;46.832;16.838;2022-10-16T05:31:16;13.40;90.10
32366;DHT22;18837;46.832;16.838;2022-10-16T05:33:42;13.40;89.60
32366;DHT22;18837;46.832;16.838;2022-10-16T05:36:09;13.40;89.10
32366;DHT22;18837;46.832;16.838;2022-10-16T05:38:36;13.40;89.10
32366;DHT22;18837;46.832;16.838;2022-10-16T05:41:02;13.40;88.70
32366;DHT22;18837;46.832;16.838;2022-10-16T05:43:29;13.40;89.10
32366;DHT22;18837;46.832;16.838;2022-10-16T05:46:14;13.40;89.00
32366;DHT22;18837;46.832;16.838;2022-10-16T05:48:55;13.30;88.90
32366;DHT22;18837;46.832;16.838;2022-10-16T05:51:20;13.30;89.40
32366;DHT22;18837;46.832;16.838;2022-10-16T05:53:46;13.30;89.20
32366;DHT22;18837;46.832;16.838;2022-10-16T05:56:12;13.20;89.30
32366;DHT22;18837;46.832;16.838;2022-10-16T05:58:38;13.20;89.60
32366;DHT22;18837;46.832;16.838;2022-10-16T06:01:15;13.20;89.70
32366;DHT22;18837;46.832;16.838;2022-10-16T06:03:52;13.20;89.80
32366;DHT22;18837;46.832;16.838;2022-10-16T06:06:23;13.20;90.20
32366;DHT22;18837;46.832;16.838;2022-10-16T06:08:50;13.20;89.80
32366;DHT22;18837;46.832;16.838;2022-10-16T06:11:24;13.20;90.00
32366;DHT22;18837;46.832;16.838;2022-10-16T06:13:54;13.20;90.00
32366;DHT22;18837;46.832;16.838;2022-10-16T06:16:22;13.20;89.90
32366;DHT22;18837;46.832;16.838;2022-10-16T06:18:54;13.30;89.60
32366;DHT22;18837;46.832;16.838;2022-10-16T06:21:33;13.30;89.60
32366;DHT22;18837;46.832;16.838;2022-10-16T06:24:02;13.40;90.20
32366;DHT22;18837;46.832;16.838;2022-10-16T06:26:30;13.40;90.00
32366;DHT22;18837;46.832;16.838;2022-10-16T06:28:57;13.40;89.20
32366;DHT22;18837;46.832;16.838;2022-10-16T06:31:24;13.40;89.30
32366;DHT22;18837;46.832;16.838;2022-10-16T06:33:55;13.40;89.20
32366;DHT22;18837;46.832;16.838;2022-10-16T06:36:22;13.40;89.40
32366;DHT22;18837;46.832;16.838;2022-10-16T06:38:50;13.40;89.60
32366;DHT22;18837;46.832;16.838;2022-10-16T06:41:17;13.40;89.80
32366;DHT22;18837;46.832;16.838;2022-10-16T06:43:43;13.40;89.90
32366;DHT22;18837;46.832;16.838;2022-10-16T06:46:11;13.40;90.00
32366;DHT22;18837;46.832;16.838;2022-10-16T06:48:37;13.30;89.70
32366;DHT22;18837;46.832;16.838;2022-10-16T06:51:09;13.30;89.80
32366;DHT22;18837;46.832;16.838;2022-10-16T06:53:43;13.30;91.60
32366;DHT22;18837;46.832;16.838;2022-10-16T06:56:28;13.40;89.90
32366;DHT22;18837;46.832;16.838;2022-10-16T06:59:15;13.40;90.00
32366;DHT22;18837;46.832;16.838;2022-10-16T07:01:41;13.40;91.80
32366;DHT22;18837;46.832;16.838;2022-10-16T07:04:06;13.40;89.90
32366;DHT22;18837;46.832;16.838;2022-10-16T07:06:33;13.40;89.80
32366;DHT22;18837;46.832;16.838;2022-10-16T07:09:02;13.50;89.90
32366;DHT22;18837;46.832;16.838;2022-10-16T07:11:28;13.50;90.20
32366;DHT22;18837;46.832;16.838;2022-10-16T07:13:59;13.60;89.80
32366;DHT22;18837;46.832;16.838;2022-10-16T07:16:30;13.60;90.10
32366;DHT22;18837;46.832;16.838;2022-10-16T07:19:02;13.70;89.10
32366;DHT22;18837;46.832;16.838;2022-10-16T07:21:31;13.70;88.80
32366;DHT22;18837;46.832;16.838;2022-10-16T07:24:00;13.70;88.80
32366;DHT22;18837;46.832;16.838;2022-10-16T07:26:27;13.70;89.10
32366;DHT22;18837;46.832;16.838;2022-10-16T07:28:58;13.70;89.20
32366;DHT22;18837;46.832;16.838;2022-10-16T07:31:43;13.70;89.70
32366;DHT22;18837;46.832;16.838;2022-10-16T07:34:10;13.70;89.30
32366;DHT22;18837;46.832;16.838;2022-10-16T07:36:36;13.70;89.30
32366;DHT22;18837;46.832;16.838;2022-10-16T07:39:02;13.70;89.40
32366;DHT22;18837;46.832;16.838;2022-10-16T07:41:28;13.70;90.20
32366;DHT22;18837;46.832;16.838;2022-10-16T07:43:54;13.70;89.40
32366;DHT22;18837;46.832;16.838;2022-10-16T07:46:22;13.70;89.50
32366;DHT22;18837;46.832;16.838;2022-10-16T07:48:53;13.70;89.70
32366;DHT22;18837;46.832;16.838;2022-10-16T07:51:22;13.70;89.90
32366;DHT22;18837;46.832;16.838;2022-10-16T07:53:48;13.80;89.70
32366;DHT22;18837;46.832;16.838;2022-10-16T07:56:15;13.80;89.70
32366;DHT22;18837;46.832;16.838;2022-10-16T07:58:42;13.90;89.70
32366;DHT22;18837;46.832;16.838;2022-10-16T08:01:10;14.00;90.20
32366;DHT22;18837;46.832;16.838;2022-10-16T08:03:50;14.10;89.30
32366;DHT22;18837;46.832;16.838;2022-10-16T08:06:41;14.20;89.10
32366;DHT22;18837;46.832;16.838;2022-10-16T08:09:12;14.30;91.10
32366;DHT22;18837;46.832;16.838;2022-10-16T08:11:38;14.30;89.20
32366;DHT22;18837;46.832;16.838;2022-10-16T08:14:03;14.30;89.00
32366;DHT22;18837;46.832;16.838;2022-10-16T08:16:29;14.30;89.10
32366;DHT22;18837;46.832;16.838;2022-10-16T08:18:55;14.30;89.10
32366;DHT22;18837;46.832;16.838;2022-10-16T08:21:22;14.30;89.80
32366;DHT22;18837;46.832;16.838;2022-10-16T08:23:49;14.30;89.60
32366;DHT22;18837;46.832;16.838;2022-10-16T08:26:15;14.30;90.10
32366;DHT22;18837;46.832;16.838;2022-10-16T08:28:41;14.30;90.30
32366;DHT22;18837;46.832;16.838;2022-10-16T08:31:13;14.30;90.60
32366;DHT22;18837;46.832;16.838;2022-10-16T08:33:41;14.30;91.10
32366;DHT22;18837;46.832;16.838;2022-10-16T08:36:09;14.30;91.00
32366;DHT22;18837;46.832;16.838;2022-10-16T08:38:53;14.30;91.10
32366;DHT22;18837;46.832;16.838;2022-10-16T08:47:06;14.40;92.40
32366;DHT22;18837;46.832;16.838;2022-10-16T08:49:34;14.50;92.00
32366;DHT22;18837;46.832;16.838;2022-10-16T08:52:00;14.60;90.20
32366;DHT22;18837;46.832;16.838;2022-10-16T08:54:51;14.70;90.00
32366;DHT22;18837;46.832;16.838;2022-10-16T08:57:29;14.80;91.70
32366;DHT22;18837;46.832;16.838;2022-10-16T09:00:00;14.90;90.20
32366;DHT22;18837;46.832;16.838;2022-10-16T09:02:40;14.90;89.90
32366;DHT22;18837;46.832;16.838;2022-10-16T09:08:28;14.90;91.00
32366;DHT22;18837;46.832;16.838;2022-10-16T09:16:51;14.90;94.00
32366;DHT22;18837;46.832;16.838;2022-10-16T09:19:37;14.90;91.90
32366;DHT22;18837;46.832;16.838;2022-10-16T09:22:18;14.90;93.80
32366;DHT22;18837;46.832;16.838;2022-10-16T09:24:47;15.00;92.20
32366;DHT22;18837;46.832;16.838;2022-10-16T09:27:31;14.90;92.10
32366;DHT22;18837;46.832;16.838;2022-10-16T09:30:26;15.00;92.40
32366;DHT22;18837;46.832;16.838;2022-10-16T09:32:53;15.00;94.20
32366;DHT22;18837;46.832;16.838;2022-10-16T09:35:21;15.00;92.00
32366;DHT22;18837;46.832;16.838;2022-10-16T09:37:50;15.10;91.30
32366;DHT22;18837;46.832;16.838;2022-10-16T09:40:37;15.20;91.10
32366;DHT22;18837;46.832;16.838;2022-10-16T09:43:23;15.30;92.70
32366;DHT22;18837;46.832;16.838;2022-10-16T09:47:00;15.50;92.10
32366;DHT22;18837;46.832;16.838;2022-10-16T09:48:59;15.50;91.90
32366;DHT22;18837;46.832;16.838;2022-10-16T09:51:34;15.60;90.60
32366;DHT22;18837;46.832;16.838;2022-10-16T09:56:36;15.60;92.50
32366;DHT22;18837;46.832;16.838;2022-10-16T09:59:11;15.60;91.30
32366;DHT22;18837;46.832;16.838;2022-10-16T10:02:00;15.60;91.30
32366;DHT22;18837;46.832;16.838;2022-10-16T10:04:47;15.60;93.20
32366;DHT22;18837;46.832;16.838;2022-10-16T10:07:42;15.60;91.70
32366;DHT22;18837;46.832;16.838;2022-10-16T10:10:24;15.60;92.20
32366;DHT22;18837;46.832;16.838;2022-10-16T10:12:51;15.60;92.50
32366;DHT22;18837;46.832;16.838;2022-10-16T10:15:17;15.50;93.00
32366;DHT22;18837;46.832;16.838;2022-10-16T10:17:52;15.60;93.30
32366;DHT22;18837;46.832;16.838;2022-10-16T10:20:37;15.60;93.30
32366;DHT22;18837;46.832;16.838;2022-10-16T10:23:23;15.60;94.30
32366;DHT22;18837;46.832;16.838;2022-10-16T10:36:39;16.20;93.10
32366;DHT22;18837;46.832;16.838;2022-10-16T10:39:33;16.30;91.70
32366;DHT22;18837;46.832;16.838;2022-10-16T10:42:36;16.40;93.10
32366;DHT22;18837;46.832;16.838;2022-10-16T10:56:59;16.40;92.70
32366;DHT22;18837;46.832;16.838;2022-10-16T11:04:58;16.30;94.40
32366;DHT22;18837;46.832;16.838;2022-10-16T11:07:34;16.30;93.40
32366;DHT22;18837;46.832;16.838;2022-10-16T11:10:45;16.30;93.50
32366;DHT22;18837;46.832;16.838;2022-10-16T11:16:23;16.40;94.50
32366;DHT22;18837;46.832;16.838;2022-10-16T11:18:55;16.50;94.10
32366;DHT22;18837;46.832;16.838;2022-10-16T11:21:23;16.60;92.70
32366;DHT22;18837;46.832;16.838;2022-10-16T11:26:26;16.80;92.20
32366;DHT22;18837;46.832;16.838;2022-10-16T11:28:54;16.90;91.60
32366;DHT22;18837;46.832;16.838;2022-10-16T11:34:38;17.00;92.40
32366;DHT22;18837;46.832;16.838;2022-10-16T11:37:32;17.00;91.50
32366;DHT22;18837;46.832;16.838;2022-10-16T11:40:14;17.00;92.60
32366;DHT22;18837;46.832;16.838;2022-10-16T11:43:04;17.00;91.90
32366;DHT22;18837;46.832;16.838;2022-10-16T11:45:54;17.00;92.80
32366;DHT22;18837;46.832;16.838;2022-10-16T11:48:54;17.00;93.00
32366;DHT22;18837;46.832;16.838;2022-10-16T11:52:23;17.00;93.10
32366;DHT22;18837;46.832;16.838;2022-10-16T11:54:44;17.00;92.90
32366;DHT22;18837;46.832;16.838;2022-10-16T11:57:20;17.00;92.20
32366;DHT22;18837;46.832;16.838;2022-10-16T12:08:10;17.10;92.10
32366;DHT22;18837;46.832;16.838;2022-10-16T12:10:37;17.20;91.50
32366;DHT22;18837;46.832;16.838;2022-10-16T12:16:05;17.50;90.80
32366;DHT22;18837;46.832;16.838;2022-10-16T12:18:31;17.50;89.80
32366;DHT22;18837;46.832;16.838;2022-10-16T12:21:18;17.60;89.90
32366;DHT22;18837;46.832;16.838;2022-10-16T12:24:42;17.60;90.60
32366;DHT22;18837;46.832;16.838;2022-10-16T12:27:32;17.60;89.80
32366;DHT22;18837;46.832;16.838;2022-10-16T12:30:04;17.50;90.70
32366;DHT22;18837;46.832;16.838;2022-10-16T12:32:37;17.50;90.30
32366;DHT22;18837;46.832;16.838;2022-10-16T12:35:18;17.50;90.00
32366;DHT22;18837;46.832;16.838;2022-10-16T12:37:45;17.40;90.00
32366;DHT22;18837;46.832;16.838;2022-10-16T12:40:40;17.40;90.00
32366;DHT22;18837;46.832;16.838;2022-10-16T12:43:35;17.40;90.10
32366;DHT22;18837;46.832;16.838;2022-10-16T12:48:37;17.40;90.40
32366;DHT22;18837;46.832;16.838;2022-10-16T12:51:11;17.40;90.00
32366;DHT22;18837;46.832;16.838;2022-10-16T12:53:37;17.40;90.10
32366;DHT22;18837;46.832;16.838;2022-10-16T13:05:35;17.70;90.10
32366;DHT22;18837;46.832;16.838;2022-10-16T13:08:22;17.70;90.00
32366;DHT22;18837;46.832;16.838;2022-10-16T13:18:55;17.80;88.80
32366;DHT22;18837;46.832;16.838;2022-10-16T13:21:44;17.80;88.90
32366;DHT22;18837;46.832;16.838;2022-10-16T13:30:01;17.70;89.70
32366;DHT22;18837;46.832;16.838;2022-10-16T13:32:28;17.60;90.00
32366;DHT22;18837;46.832;16.838;2022-10-16T13:34:54;17.70;89.10
32366;DHT22;18837;46.832;16.838;2022-10-16T13:37:25;17.70;87.90
32366;DHT22;18837;46.832;16.838;2022-10-16T13:39:50;17.80;86.90
32366;DHT22;18837;46.832;16.838;2022-10-16T13:42:28;17.90;85.80
32366;DHT22;18837;46.832;16.838;2022-10-16T13:44:55;18.00;85.50
32366;DHT22;18837;46.832;16.838;2022-10-16T13:50:15;18.10;84.30
32366;DHT22;18837;46.832;16.838;2022-10-16T13:52:41;18.20;84.90
32366;DHT22;18837;46.832;16.838;2022-10-16T13:55:16;18.30;84.20
32366;DHT22;18837;46.832;16.838;2022-10-16T13:57:42;18.30;84.70
32366;DHT22;18837;46.832;16.838;2022-10-16T14:00:25;18.30;85.00
32366;DHT22;18837;46.832;16.838;2022-10-16T14:03:04;18.30;85.10
32366;DHT22;18837;46.832;16.838;2022-10-16T14:05:48;18.30;86.00
32366;DHT22;18837;46.832;16.838;2022-10-16T14:08:20;18.30;85.50
32366;DHT22;18837;46.832;16.838;2022-10-16T14:10:51;18.30;86.10
32366;DHT22;18837;46.832;16.838;2022-10-16T14:13:21;18.20;86.40
32366;DHT22;18837;46.832;16.838;2022-10-16T14:15:51;18.10;86.30
32366;DHT22;18837;46.832;16.838;2022-10-16T14:18:23;18.10;87.00
32366;DHT22;18837;46.832;16.838;2022-10-16T14:20:50;18.00;87.10
32366;DHT22;18837;46.832;16.838;2022-10-16T14:25:45;17.90;87.50
32366;DHT22;18837;46.832;16.838;2022-10-16T14:28:21;17.80;87.80
32366;DHT22;18837;46.832;16.838;2022-10-16T14:30:56;17.80;88.20
32366;DHT22;18837;46.832;16.838;2022-10-16T14:38:36;17.70;87.80
32366;DHT22;18837;46.832;16.838;2022-10-16T14:41:24;17.70;87.80
32366;DHT22;18837;46.832;16.838;2022-10-16T14:44:03;17.70;87.60
32366;DHT22;18837;46.832;16.838;2022-10-16T14:46:37;17.80;87.90
32366;DHT22;18837;46.832;16.838;2022-10-16T14:49:17;17.80;87.50
32366;DHT22;18837;46.832;16.838;2022-10-16T14:51:45;17.80;87.20
32366;DHT22;18837;46.832;16.838;2022-10-16T14:54:16;17.90;87.10
32366;DHT22;18837;46.832;16.838;2022-10-16T15:59:51;17.40;89.20
32366;DHT22;18837;46.832;16.838;2022-10-16T16:02:17;17.30;88.00
32366;DHT22;18837;46.832;16.838;2022-10-16T16:04:42;17.20;87.90
32366;DHT22;18837;46.832;16.838;2022-10-16T16:07:24;17.20;88.20
32366;DHT22;18837;46.832;16.838;2022-10-16T16:09:49;17.10;88.90
32366;DHT22;18837;46.832;16.838;2022-10-16T16:12:15;17.10;88.70
32366;DHT22;18837;46.832;16.838;2022-10-16T16:14:41;17.00;89.30
32366;DHT22;18837;46.832;16.838;2022-10-16T16:17:07;17.00;88.70
32366;DHT22;18837;46.832;16.838;2022-10-16T16:19:33;16.90;88.90
32366;DHT22;18837;46.832;16.838;2022-10-16T16:22:19;16.90;88.90
32366;DHT22;18837;46.832;16.838;2022-10-16T16:25:05;16.90;90.20
32366;DHT22;18837;46.832;16.838;2022-10-16T16:27:40;17.00;90.30
32366;DHT22;18837;46.832;16.838;2022-10-16T16:30:07;17.10;89.30
32366;DHT22;18837;46.832;16.838;2022-10-16T16:32:34;17.10;88.50
32366;DHT22;18837;46.832;16.838;2022-10-16T16:35:00;17.20;88.80
32366;DHT22;18837;46.832;16.838;2022-10-16T16:37:26;17.20;88.10
32366;DHT22;18837;46.832;16.838;2022-10-16T16:39:52;17.20;88.20
32366;DHT22;18837;46.832;16.838;2022-10-16T16:42:38;17.20;88.60
32366;DHT22;18837;46.832;16.838;2022-10-16T16:45:04;17.20;87.70
32366;DHT22;18837;46.832;16.838;2022-10-16T16:47:29;17.10;88.10
32366;DHT22;18837;46.832;16.838;2022-10-16T16:49:58;17.00;87.90
32366;DHT22;18837;46.832;16.838;2022-10-16T16:52:24;17.00;87.90
32366;DHT22;18837;46.832;16.838;2022-10-16T16:54:50;16.90;88.20
32366;DHT22;18837;46.832;16.838;2022-10-16T17:01:25;16.80;88.70
32366;DHT22;18837;46.832;16.838;2022-10-16T17:03:54;16.80;88.90
32366;DHT22;18837;46.832;16.838;2022-10-16T17:06:22;16.70;88.80
32366;DHT22;18837;46.832;16.838;2022-10-16T17:08:49;16.70;89.00
32366;DHT22;18837;46.832;16.838;2022-10-16T17:11:17;16.60;88.90
32366;DHT22;18837;46.832;16.838;2022-10-16T17:13:44;16.60;89.10
32366;DHT22;18837;46.832;16.838;2022-10-16T17:16:16;16.60;89.70
32366;DHT22;18837;46.832;16.838;2022-10-16T17:18:42;16.60;89.40
32366;DHT22;18837;46.832;16.838;2022-10-16T17:21:09;16.60;89.50
32366;DHT22;18837;46.832;16.838;2022-10-16T17:23:36;16.70;89.00
32366;DHT22;18837;46.832;16.838;2022-10-16T17:26:10;16.80;88.90
32366;DHT22;18837;46.832;16.838;2022-10-16T17:28:36;16.80;88.50
32366;DHT22;18837;46.832;16.838;2022-10-16T17:31:22;16.90;88.20
32366;DHT22;18837;46.832;16.838;2022-10-16T17:34:13;16.90;88.20
32366;DHT22;18837;46.832;16.838;2022-10-16T17:36:43;16.90;89.30
32366;DHT22;18837;46.832;16.838;2022-10-16T17:39:13;16.80;87.90
32366;DHT22;18837;46.832;16.838;2022-10-16T17:41:39;16.80;88.20
32366;DHT22;18837;46.832;16.838;2022-10-16T17:44:05;16.70;88.30
32366;DHT22;18837;46.832;16.838;2022-10-16T17:46:31;16.60;88.20
32366;DHT22;18837;46.832;16.838;2022-10-16T17:48:58;16.60;88.60
32366;DHT22;18837;46.832;16.838;2022-10-16T17:51:39;16.60;88.80
32366;DHT22;18837;46.832;16.838;2022-10-16T17:54:05;16.50;89.00
32366;DHT22;18837;46.832;16.838;2022-10-16T17:56:31;16.50;89.70
32366;DHT22;18837;46.832;16.838;2022-10-16T17:58:59;16.40;89.20
32366;DHT22;18837;46.832;16.838;2022-10-16T18:01:34;16.40;89.30
32366;DHT22;18837;46.832;16.838;2022-10-16T18:04:06;16.40;89.40
32366;DHT22;18837;46.832;16.838;2022-10-16T18:06:49;16.30;89.50
32366;DHT22;18837;46.832;16.838;2022-10-16T18:09:35;16.30;89.70
32366;DHT22;18837;46.832;16.838;2022-10-16T18:12:01;16.40;90.30
32366;DHT22;18837;46.832;16.838;2022-10-16T18:14:28;16.40;90.10
32366;DHT22;18837;46.832;16.838;2022-10-16T18:16:55;16.50;89.10
32366;DHT22;18837;46.832;16.838;2022-10-16T18:19:22;16.50;89.10
32366;DHT22;18837;46.832;16.838;2022-10-16T18:21:48;16.60;89.00
32366;DHT22;18837;46.832;16.838;2022-10-16T18:24:15;16.60;88.60
32366;DHT22;18837;46.832;16.838;2022-10-16T18:26:52;16.60;88.20
32366;DHT22;18837;46.832;16.838;2022-10-16T18:29:21;16.60;88.00
32366;DHT22;18837;46.832;16.838;2022-10-16T18:31:50;16.50;88.00
32366;DHT22;18837;46.832;16.838;2022-10-16T18:34:16;16.50;90.00
32366;DHT22;18837;46.832;16.838;2022-10-16T18:36:41;16.40;88.70
32366;DHT22;18837;46.832;16.838;2022-10-16T18:39:10;16.40;90.30
32366;DHT22;18837;46.832;16.838;2022-10-16T18:42:00;16.30;89.00
32366;DHT22;18837;46.832;16.838;2022-10-16T18:44:52;16.20;90.30